Time;durP1;ratioP1;P1;durP2;ratioP2;P2;SDS_P1;SDS_P2;PMS_P1;PMS_P2;Temp;Humidity;BMP_temperature;BMP_pressure;BME280_temperature;BME280_humidity;BME280_pressure;Samples;Min_cycle;Max_cycle;Signal;HPM_P1;HPM_P2
2021/12/25 00:00:16;;;;;;;16.48;9.50;;;8.80;99.90;;;;;;5027939;28;20033;-79
2021/12/25 00:02:43;;;;;;;15.75;9.27;;;8.80;99.90;;;;;;5027872;28;20502;-79
2021/12/25 00:05:10;;;;;;;16.67;9.30;;;8.80;99.90;;;;;;5026832;28;20117;-79
2021/12/25 00:07:36;;;;;;;16.92;10.05;;;8.90;99.90;;;;;;5026448;28;20079;-79
2021/12/25 00:10:04;;;;;;;21.80;10.27;;;8.90;99.90;;;;;;5030202;28;20025;-79
2021/12/25 00:12:30;;;;;;;22.40;10.93;;;8.90;99.90;;;;;;5029134;28;20017;-79
2021/12/25 00:14:56;;;;;;;18.65;10.32;;;9.00;99.90;;;;;;5026324;28;20036;-79
2021/12/25 00:17:22;;;;;;;18.67;10.88;;;9.00;99.90;;;;;;5027760;28;20022;-79
2021/12/25 00:19:48;;;;;;;22.48;10.85;;;9.00;99.90;;;;;;5026807;28;20116;-79
2021/12/25 00:22:14;;;;;;;19.95;9.60;;;9.00;99.90;;;;;;5029198;28;20109;-79
2021/12/25 00:24:43;;;;;;;20.45;11.02;;;9.00;99.90;;;;;;5029350;28;20048;-79
2021/12/25 00:29:55;;;;;;;21.77;11.10;;;9.10;99.90;;;;;;5032449;28;20029;-78
2021/12/25 00:34:48;;;;;;;24.75;13.93;;;9.20;99.90;;;;;;5032456;28;20024;-78
2021/12/25 00:37:14;;;;;;;27.77;12.75;;;9.30;99.90;;;;;;5032451;28;20067;-78
2021/12/25 00:39:40;;;;;;;18.27;10.15;;;9.30;99.90;;;;;;5033061;28;20290;-78
2021/12/25 00:42:06;;;;;;;19.77;10.70;;;9.30;99.90;;;;;;5031404;28;20029;-78
2021/12/25 00:44:33;;;;;;;21.05;11.40;;;9.20;99.90;;;;;;5031829;28;20050;-78
2021/12/25 00:47:00;;;;;;;19.75;10.55;;;9.30;99.90;;;;;;5030639;28;20163;-78
2021/12/25 00:49:26;;;;;;;18.75;10.48;;;9.30;99.90;;;;;;5031402;28;20080;-78
2021/12/25 00:51:52;;;;;;;20.50;10.80;;;9.30;99.90;;;;;;5034128;28;20079;-79
2021/12/25 00:54:17;;;;;;;19.63;10.70;;;9.20;99.90;;;;;;5029945;28;20250;-79
2021/12/25 00:56:43;;;;;;;18.92;10.70;;;9.30;99.90;;;;;;5031685;28;20034;-78
2021/12/25 00:59:09;;;;;;;19.73;10.35;;;9.30;99.90;;;;;;5030443;28;20392;-78
2021/12/25 01:01:35;;;;;;;18.35;10.90;;;9.30;99.90;;;;;;5031762;28;20037;-78
2021/12/25 01:04:01;;;;;;;21.45;11.75;;;9.30;99.90;;;;;;5032446;28;20498;-79
2021/12/25 01:06:27;;;;;;;24.27;12.25;;;9.30;99.90;;;;;;5031329;28;20056;-78
2021/12/25 01:08:52;;;;;;;19.77;10.63;;;9.30;99.90;;;;;;5031280;28;20018;-79
2021/12/25 01:11:18;;;;;;;20.25;11.10;;;9.30;99.90;;;;;;5031610;28;20034;-79
2021/12/25 01:13:54;;;;;;;18.50;10.32;;;9.20;99.90;;;;;;5031463;28;20025;-79
2021/12/25 01:29:33;;;;;;;19.60;10.10;;;9.20;99.90;;;;;;5031086;28;20029;-79
2021/12/25 01:35:11;;;;;;;19.05;10.20;;;9.20;99.90;;;;;;5031189;28;20094;-79
2021/12/25 01:48:42;;;;;;;22.95;12.13;;;9.30;99.90;;;;;;5047008;28;20044;-79
2021/12/25 01:51:08;;;;;;;19.67;11.27;;;9.20;99.90;;;;;;5031233;28;20021;-79
2021/12/25 01:53:34;;;;;;;19.08;11.40;;;9.20;99.90;;;;;;5030762;28;20110;-80
2021/12/25 01:56:02;;;;;;;21.35;11.48;;;9.20;99.90;;;;;;5031302;28;20478;-80
2021/12/25 01:58:28;;;;;;;22.95;11.85;;;9.20;99.90;;;;;;5045322;28;20026;-80
2021/12/25 02:00:56;;;;;;;19.55;10.95;;;9.10;99.90;;;;;;5049035;28;20041;-80
2021/12/25 02:03:27;;;;;;;20.35;11.57;;;9.20;99.90;;;;;;5043915;28;20055;-79
2021/12/25 02:05:54;;;;;;;20.77;11.17;;;9.20;99.90;;;;;;5031330;28;20040;-80
2021/12/25 02:08:20;;;;;;;18.77;10.57;;;9.10;99.90;;;;;;5043809;28;20041;-80
2021/12/25 02:10:46;;;;;;;18.33;10.40;;;9.00;99.90;;;;;;5044426;28;20072;-80
2021/12/25 02:13:12;;;;;;;21.45;10.60;;;9.00;99.90;;;;;;5044785;28;20030;-80
2021/12/25 02:15:45;;;;;;;18.48;9.98;;;9.00;99.90;;;;;;5030369;28;20080;-80
2021/12/25 02:18:22;;;;;;;18.60;10.35;;;9.00;99.90;;;;;;5030254;28;20541;-79
2021/12/25 02:21:34;;;;;;;17.70;10.27;;;8.90;99.90;;;;;;5028457;28;20029;-79
2021/12/25 02:23:38;;;;;;;18.73;9.52;;;8.90;99.90;;;;;;5029318;28;20029;-79
2021/12/25 02:26:05;;;;;;;19.20;10.07;;;9.00;99.90;;;;;;5029712;28;20029;-79
2021/12/25 02:28:30;;;;;;;18.13;10.63;;;9.00;99.90;;;;;;5030518;28;20049;-79
2021/12/25 02:31:01;;;;;;;20.13;9.85;;;9.00;99.90;;;;;;5031438;28;20099;-79
2021/12/25 02:33:27;;;;;;;16.38;9.00;;;9.00;99.90;;;;;;5028599;28;20030;-79
2021/12/25 02:35:54;;;;;;;18.08;10.32;;;8.80;99.90;;;;;;5029724;28;20021;-80
2021/12/25 02:38:20;;;;;;;19.33;9.75;;;8.80;99.90;;;;;;5030075;28;20491;-79
2021/12/25 02:40:46;;;;;;;17.05;9.80;;;8.70;99.90;;;;;;5028705;28;20033;-80
2021/12/25 02:43:12;;;;;;;14.98;9.05;;;8.60;99.90;;;;;;5030263;28;20109;-79
2021/12/25 02:45:39;;;;;;;14.80;8.30;;;8.50;99.90;;;;;;5031164;28;20040;-79
2021/12/25 02:48:10;;;;;;;16.55;9.32;;;8.40;99.90;;;;;;5028345;28;20052;-79
2021/12/25 02:50:38;;;;;;;14.75;7.95;;;8.40;99.90;;;;;;5028894;28;20028;-79
2021/12/25 02:53:05;;;;;;;16.85;9.63;;;8.30;99.90;;;;;;5028604;28;20525;-79
2021/12/25 02:55:31;;;;;;;14.25;8.75;;;8.30;99.90;;;;;;5029712;28;20022;-79
2021/12/25 02:57:57;;;;;;;16.10;8.73;;;8.20;99.90;;;;;;5031439;28;20109;-79
2021/12/25 03:00:44;;;;;;;12.63;8.40;;;8.30;99.90;;;;;;5029396;28;20060;-79
2021/12/25 03:03:09;;;;;;;13.85;8.60;;;8.20;99.90;;;;;;5027847;28;20121;-79
2021/12/25 03:05:37;;;;;;;15.07;8.50;;;8.10;99.90;;;;;;5028862;28;20116;-79
2021/12/25 03:08:04;;;;;;;16.92;8.48;;;8.20;99.90;;;;;;5028046;28;20067;-79
2021/12/25 03:10:33;;;;;;;17.30;9.10;;;8.10;99.90;;;;;;5027979;28;20091;-79
2021/12/25 03:13:19;;;;;;;16.30;8.80;;;8.10;99.90;;;;;;5031252;28;20033;-79
2021/12/25 03:15:47;;;;;;;16.17;8.90;;;8.10;99.90;;;;;;5031266;28;20030;-79
2021/12/25 03:18:23;;;;;;;13.68;7.90;;;8.00;99.90;;;;;;5028974;28;20045;-79
2021/12/25 03:20:51;;;;;;;13.50;7.78;;;7.90;99.90;;;;;;5027780;28;20049;-79
2021/12/25 03:23:23;;;;;;;16.10;9.60;;;8.00;99.90;;;;;;5029283;28;20048;-78
2021/12/25 03:25:51;;;;;;;17.98;9.50;;;8.00;99.90;;;;;;5027648;28;20025;-79
2021/12/25 03:28:18;;;;;;;18.33;10.05;;;8.10;99.90;;;;;;5029553;28;20025;-79
2021/12/25 03:30:45;;;;;;;15.05;8.70;;;7.90;99.90;;;;;;5031040;28;20017;-79
2021/12/25 03:33:14;;;;;;;14.40;8.18;;;7.90;99.90;;;;;;5028558;28;20033;-79
2021/12/25 03:35:41;;;;;;;16.23;8.70;;;7.60;99.90;;;;;;5028888;28;20018;-79
2021/12/25 03:38:10;;;;;;;15.23;8.18;;;7.50;99.90;;;;;;5028496;28;20071;-78
2021/12/25 03:40:36;;;;;;;14.43;8.18;;;7.50;99.90;;;;;;5027821;28;20031;-78
2021/12/25 03:43:02;;;;;;;12.90;7.80;;;7.30;99.90;;;;;;5030671;28;20434;-79
2021/12/25 03:45:31;;;;;;;13.57;7.40;;;7.10;99.90;;;;;;5027604;28;20086;-78
2021/12/25 03:48:40;;;;;;;11.68;7.00;;;7.30;99.90;;;;;;5027101;28;20029;-78
2021/12/25 03:59:07;;;;;;;13.60;7.35;;;7.10;99.90;;;;;;5028810;28;20071;-77
2021/12/25 04:04:17;;;;;;;12.85;7.38;;;7.00;99.90;;;;;;5026831;28;20091;-78
2021/12/25 04:07:07;;;;;;;13.38;8.77;;;7.10;99.90;;;;;;5028406;28;20040;-78
2021/12/25 04:09:34;;;;;;;12.38;6.95;;;7.00;99.90;;;;;;5029471;28;20113;-78
2021/12/25 04:12:06;;;;;;;12.55;6.93;;;7.20;99.90;;;;;;5027147;28;20026;-78
2021/12/25 04:14:32;;;;;;;11.93;6.78;;;7.00;99.90;;;;;;5027982;28;20032;-78
2021/12/25 04:16:58;;;;;;;12.43;7.18;;;7.00;99.90;;;;;;5026674;28;20025;-78
2021/12/25 04:19:24;;;;;;;11.63;6.13;;;7.00;99.90;;;;;;5027158;28;20037;-78
2021/12/25 04:22:02;;;;;;;13.65;6.78;;;6.80;99.90;;;;;;5028584;28;20530;-78
2021/12/25 04:24:32;;;;;;;11.23;7.25;;;6.70;99.90;;;;;;5027293;28;20537;-77
2021/12/25 04:26:58;;;;;;;12.55;6.85;;;6.70;99.90;;;;;;5026851;28;20075;-77
2021/12/25 05:04:48;;;;;;;11.05;5.95;;;6.20;99.90;;;;;;5028471;28;20088;-78
2021/12/25 05:07:02;;;;;;;11.88;6.22;;;6.20;99.90;;;;;;5027824;28;20608;-78
2021/12/25 05:09:28;;;;;;;11.90;6.28;;;6.40;99.90;;;;;;5027558;28;20112;-78
2021/12/25 05:11:54;;;;;;;12.13;6.68;;;6.40;99.90;;;;;;5028424;28;20144;-78
2021/12/25 05:14:20;;;;;;;13.43;7.10;;;6.40;99.90;;;;;;5029896;28;20510;-78
2021/12/25 05:16:45;;;;;;;12.93;6.70;;;6.40;99.90;;;;;;5030153;28;20509;-78
2021/12/25 05:19:11;;;;;;;9.35;5.45;;;6.50;99.90;;;;;;5032236;28;20302;-78
2021/12/25 05:21:37;;;;;;;10.00;6.38;;;6.30;99.90;;;;;;5032611;28;20009;-77
2021/12/25 05:24:05;;;;;;;11.65;6.30;;;6.30;99.90;;;;;;5031128;28;20100;-78
2021/12/25 05:26:31;;;;;;;10.43;6.63;;;6.50;99.90;;;;;;5031313;28;20025;-78
2021/12/25 05:28:59;;;;;;;12.07;6.50;;;6.40;99.90;;;;;;5030959;28;20029;-77
2021/12/25 05:31:27;;;;;;;13.25;7.50;;;6.30;99.90;;;;;;5030391;28;20021;-77
2021/12/25 05:33:53;;;;;;;9.27;5.78;;;6.30;99.90;;;;;;5032816;28;20135;-77
2021/12/25 05:36:19;;;;;;;12.00;6.43;;;6.50;99.90;;;;;;5031074;28;20025;-78
2021/12/25 05:38:45;;;;;;;9.50;6.15;;;6.40;99.90;;;;;;5030909;28;20533;-77
2021/12/25 05:41:11;;;;;;;9.95;5.50;;;6.30;99.90;;;;;;5030938;28;20461;-77
2021/12/25 05:43:37;;;;;;;8.68;5.50;;;6.30;99.90;;;;;;5030147;28;20115;-77
2021/12/25 05:46:03;;;;;;;8.05;5.07;;;6.10;99.90;;;;;;5032397;28;20029;-77
2021/12/25 05:48:35;;;;;;;9.70;5.63;;;6.20;99.90;;;;;;5029971;28;20029;-77
2021/12/25 05:51:04;;;;;;;;;;;6.50;99.90;;;;;;5031268;28;20021;-77
2021/12/25 05:53:30;;;;;;;9.68;5.45;;;6.30;99.90;;;;;;5030797;28;19917;-77
2021/12/25 05:55:55;;;;;;;10.52;6.35;;;6.40;99.90;;;;;;5030548;28;20578;-77
2021/12/25 05:58:21;;;;;;;10.43;6.10;;;6.30;99.90;;;;;;5029462;28;20025;-77
2021/12/25 06:00:47;;;;;;;12.57;6.80;;;6.50;99.90;;;;;;5027108;28;20499;-77
2021/12/25 06:03:12;;;;;;;12.65;7.47;;;6.40;99.90;;;;;;5030714;28;20411;-77
2021/12/25 06:05:40;;;;;;;11.25;6.32;;;6.40;99.90;;;;;;5030317;28;20441;-77
2021/12/25 06:08:06;;;;;;;14.70;7.43;;;6.30;99.90;;;;;;5030383;28;20075;-77
2021/12/25 06:10:31;;;;;;;12.35;6.32;;;6.30;99.90;;;;;;5030202;28;20037;-78
2021/12/25 06:12:59;;;;;;;12.32;6.88;;;6.10;99.90;;;;;;5031931;28;20104;-77
2021/12/25 06:15:26;;;;;;;11.40;6.60;;;6.30;99.90;;;;;;5030178;28;20038;-77
2021/12/25 06:17:52;;;;;;;10.48;6.70;;;6.40;99.90;;;;;;5030324;28;20491;-78
2021/12/25 06:20:18;;;;;;;9.73;6.05;;;6.40;99.90;;;;;;5030236;28;20025;-77
2021/12/25 06:22:44;;;;;;;9.68;5.40;;;6.20;99.90;;;;;;5030444;28;20018;-78
2021/12/25 06:25:10;;;;;;;10.52;6.20;;;6.40;99.90;;;;;;5028513;28;20514;-78
2021/12/25 06:27:36;;;;;;;10.35;6.03;;;6.30;99.90;;;;;;5029734;28;20037;-77
2021/12/25 06:30:03;;;;;;;11.80;6.65;;;6.00;99.90;;;;;;5029983;28;20055;-77
2021/12/25 06:32:29;;;;;;;12.93;7.30;;;6.00;99.90;;;;;;5029667;28;20052;-77
2021/12/25 06:34:55;;;;;;;13.80;6.40;;;6.10;99.90;;;;;;5030392;28;20435;-77
2021/12/25 06:37:21;;;;;;;10.60;6.40;;;6.00;99.90;;;;;;5029510;28;20130;-78
2021/12/25 06:39:47;;;;;;;10.85;6.55;;;6.10;99.90;;;;;;5030185;28;20498;-77
2021/12/25 06:42:14;;;;;;;10.27;6.07;;;5.90;99.90;;;;;;5029681;28;20025;-77
2021/12/25 06:44:40;;;;;;;9.82;5.60;;;5.80;99.90;;;;;;5028163;28;20056;-77
2021/12/25 06:47:06;;;;;;;12.75;5.90;;;5.80;99.90;;;;;;5030023;28;20030;-77
2021/12/25 06:49:31;;;;;;;11.75;6.57;;;6.00;99.90;;;;;;5030147;28;20034;-77
2021/12/25 06:51:57;;;;;;;10.95;6.38;;;5.90;99.90;;;;;;5031753;28;20487;-77
2021/12/25 06:54:23;;;;;;;11.77;6.82;;;5.90;99.90;;;;;;5029455;28;20411;-77
2021/12/25 06:56:49;;;;;;;11.45;6.53;;;5.80;99.90;;;;;;5027827;28;20411;-77
2021/12/25 06:59:16;;;;;;;11.68;6.00;;;5.90;99.90;;;;;;5029586;28;20087;-77
2021/12/25 07:01:42;;;;;;;9.50;6.05;;;5.90;99.90;;;;;;5027892;28;20130;-77
2021/12/25 07:04:08;;;;;;;12.30;6.10;;;5.90;99.90;;;;;;5030244;28;20025;-77
2021/12/25 07:06:35;;;;;;;10.65;6.55;;;6.00;99.90;;;;;;5030746;28;20013;-77
2021/12/25 07:09:02;;;;;;;12.38;6.78;;;6.00;99.90;;;;;;5028066;28;20484;-77
2021/12/25 07:11:28;;;;;;;10.98;6.30;;;6.10;99.90;;;;;;5028965;28;20021;-77
2021/12/25 07:13:53;;;;;;;14.02;7.10;;;6.00;99.90;;;;;;5029832;28;20087;-78
2021/12/25 07:16:19;;;;;;;12.55;6.85;;;6.20;99.90;;;;;;5027855;28;20028;-77
2021/12/25 07:18:45;;;;;;;13.63;7.30;;;6.20;99.90;;;;;;5030829;28;20388;-77
2021/12/25 07:21:12;;;;;;;12.80;6.72;;;6.10;99.90;;;;;;5029380;28;20049;-77
2021/12/25 07:23:38;;;;;;;13.30;7.15;;;6.10;99.90;;;;;;5027528;28;20029;-77
2021/12/25 07:26:04;;;;;;;11.57;5.97;;;5.90;99.90;;;;;;5028827;28;20079;-77
2021/12/25 07:28:30;;;;;;;11.77;6.90;;;5.80;99.90;;;;;;5029404;28;20028;-77
2021/12/25 07:31:00;;;;;;;11.60;6.07;;;5.90;99.90;;;;;;5029090;28;20025;-77
2021/12/25 07:33:26;;;;;;;10.20;5.88;;;5.80;99.90;;;;;;5028868;28;20128;-77
2021/12/25 07:35:52;;;;;;;9.65;5.90;;;5.80;99.90;;;;;;5028874;28;20017;-76
2021/12/25 07:38:18;;;;;;;12.68;6.88;;;5.80;99.90;;;;;;5028262;28;20461;-77
2021/12/25 07:40:45;;;;;;;9.90;5.93;;;5.90;99.90;;;;;;5028667;28;20055;-77
2021/12/25 07:43:11;;;;;;;10.23;5.95;;;5.90;99.90;;;;;;5027087;28;20034;-77
2021/12/25 07:45:36;;;;;;;9.88;5.80;;;5.90;99.90;;;;;;5016664;28;20050;-77
2021/12/25 07:48:03;;;;;;;12.80;7.00;;;5.90;99.90;;;;;;5028646;28;20033;-77
2021/12/25 07:50:32;;;;;;;14.80;6.97;;;5.90;99.90;;;;;;5028461;28;20017;-78
2021/12/25 07:52:58;;;;;;;13.32;6.65;;;5.90;99.90;;;;;;5026980;28;20040;-78
2021/12/25 07:55:24;;;;;;;12.55;6.88;;;5.90;99.90;;;;;;5027693;28;20022;-78
2021/12/25 07:57:50;;;;;;;11.68;6.93;;;5.90;99.90;;;;;;5028931;28;20499;-77
2021/12/25 08:00:17;;;;;;;14.90;8.23;;;5.90;99.90;;;;;;5021035;28;20036;-77
2021/12/25 08:02:45;;;;;;;13.95;7.55;;;5.80;99.90;;;;;;5020546;28;20039;-77
2021/12/25 08:05:12;;;;;;;12.23;7.38;;;5.80;99.90;;;;;;5028168;28;20108;-78
2021/12/25 08:07:38;;;;;;;15.85;7.28;;;6.00;99.90;;;;;;5024414;28;20128;-77
2021/12/25 08:10:13;;;;;;;14.02;7.15;;;6.30;99.90;;;;;;5028292;28;20554;-77
2021/12/25 08:12:48;;;;;;;12.43;6.95;;;6.50;99.90;;;;;;5029071;28;20019;-78
2021/12/25 08:15:15;;;;;;;14.32;7.57;;;6.50;99.90;;;;;;5027017;28;20032;-76
2021/12/25 08:17:41;;;;;;;14.60;8.10;;;6.70;99.90;;;;;;5026249;28;20087;-77
2021/12/25 08:20:08;;;;;;;13.55;7.70;;;6.40;99.90;;;;;;5024286;28;20029;-76
2021/12/25 08:22:35;;;;;;;15.70;7.93;;;6.40;99.90;;;;;;5028312;28;20026;-76
2021/12/25 08:25:01;;;;;;;13.60;7.10;;;6.30;99.90;;;;;;5013060;28;20036;-76
2021/12/25 08:27:27;;;;;;;15.20;7.25;;;6.50;99.90;;;;;;5021917;28;20483;-76
2021/12/25 08:29:53;;;;;;;11.10;6.57;;;6.60;99.90;;;;;;5027344;28;20033;-77
2021/12/25 08:32:19;;;;;;;14.55;6.95;;;6.80;99.90;;;;;;5025525;28;20135;-76
2021/12/25 08:34:44;;;;;;;15.27;8.80;;;7.00;99.90;;;;;;5028186;28;20017;-77
2021/12/25 08:37:11;;;;;;;13.77;8.43;;;7.20;99.90;;;;;;5023155;28;20037;-76
2021/12/25 08:39:37;;;;;;;15.15;8.43;;;7.10;99.90;;;;;;5024875;28;20096;-77
2021/12/25 08:42:05;;;;;;;13.77;8.55;;;7.20;99.90;;;;;;5023277;28;20508;-77
2021/12/25 08:44:53;;;;;;;13.52;7.57;;;7.20;99.90;;;;;;5023638;28;20041;-76
2021/12/25 08:47:20;;;;;;;16.15;9.57;;;7.60;99.90;;;;;;5026071;28;20036;-78
2021/12/25 08:49:46;;;;;;;13.30;8.50;;;7.80;99.90;;;;;;5028908;28;20026;-78
2021/12/25 08:52:15;;;;;;;18.23;9.05;;;7.80;99.90;;;;;;5027713;28;20025;-79
2021/12/25 08:54:42;;;;;;;14.57;8.10;;;7.80;99.90;;;;;;5026266;28;20030;-79
2021/12/25 08:57:09;;;;;;;16.35;8.80;;;7.70;99.90;;;;;;5033465;28;20567;-80
2021/12/25 08:59:37;;;;;;;15.45;8.90;;;7.80;99.90;;;;;;5036881;28;20101;-80
2021/12/25 09:02:08;;;;;;;14.70;9.02;;;8.10;99.90;;;;;;5022090;28;20025;-80
2021/12/25 09:04:36;;;;;;;16.87;9.40;;;9.00;99.90;;;;;;5026633;28;20084;-80
2021/12/25 09:07:02;;;;;;;16.05;9.55;;;10.10;99.90;;;;;;5028572;28;20307;-80
2021/12/25 09:09:28;;;;;;;16.42;9.02;;;9.40;99.90;;;;;;5031239;28;20040;-80
2021/12/25 09:11:53;;;;;;;17.00;8.98;;;8.90;99.90;;;;;;5028490;28;20021;-80
2021/12/25 09:14:20;;;;;;;13.50;8.80;;;8.60;99.90;;;;;;5024364;28;20471;-81
2021/12/25 09:16:45;;;;;;;15.88;9.30;;;8.40;99.90;;;;;;5022589;28;20586;-81
2021/12/25 09:19:11;;;;;;;12.57;8.10;;;8.50;99.90;;;;;;5031606;28;20053;-81
2021/12/25 09:21:37;;;;;;;14.85;9.20;;;8.90;99.90;;;;;;5029140;28;20532;-81
2021/12/25 09:24:03;;;;;;;16.02;9.57;;;8.90;99.90;;;;;;5024255;28;20117;-80
2021/12/25 09:26:29;;;;;;;14.30;8.90;;;8.80;99.90;;;;;;5029381;28;20072;-80
2021/12/25 09:28:54;;;;;;;16.13;9.07;;;8.80;99.90;;;;;;5029834;28;20516;-80
2021/12/25 09:31:21;;;;;;;15.15;9.82;;;8.70;99.90;;;;;;5059093;28;20388;-80
2021/12/25 09:33:46;;;;;;;15.73;9.88;;;8.80;99.90;;;;;;5026418;28;20113;-75
2021/12/25 09:36:12;;;;;;;17.30;9.43;;;8.70;99.90;;;;;;5021760;28;20110;-77
2021/12/25 09:38:38;;;;;;;15.90;9.15;;;8.90;99.90;;;;;;5023189;28;20060;-77
2021/12/25 09:41:05;;;;;;;15.93;9.75;;;9.10;99.90;;;;;;5032059;28;20033;-76
2021/12/25 09:43:33;;;;;;;13.90;8.20;;;9.20;99.90;;;;;;5025933;28;20176;-76
2021/12/25 09:45:59;;;;;;;15.73;8.73;;;9.40;99.90;;;;;;5029215;28;20676;-77
2021/12/25 09:48:25;;;;;;;16.95;9.27;;;9.60;99.90;;;;;;5026223;28;20048;-77
2021/12/25 09:50:51;;;;;;;15.18;8.95;;;9.60;99.90;;;;;;5024900;28;20030;-79
2021/12/25 09:53:19;;;;;;;15.93;8.02;;;9.50;99.90;;;;;;5022320;28;20026;-77
2021/12/25 09:55:45;;;;;;;13.10;7.63;;;9.50;99.90;;;;;;5028947;28;20526;-77
2021/12/25 09:58:11;;;;;;;12.55;7.68;;;9.50;99.90;;;;;;5025917;28;20048;-76
2021/12/25 10:00:43;;;;;;;12.73;8.00;;;9.40;99.90;;;;;;5026597;28;20497;-77
2021/12/25 10:03:08;;;;;;;;;;;9.40;99.90;;;;;;5027358;28;20116;-77
2021/12/25 10:05:44;;;;;;;15.23;7.82;;;9.50;99.90;;;;;;5024347;28;19987;-77
2021/12/25 10:08:11;;;;;;;12.98;8.05;;;9.50;99.90;;;;;;5024466;28;20116;-77
2021/12/25 10:10:46;;;;;;;14.27;8.55;;;9.60;99.90;;;;;;5024476;28;20017;-77
2021/12/25 10:13:38;;;;;;;14.02;8.25;;;9.70;99.90;;;;;;5022192;28;20044;-76
2021/12/25 10:16:22;;;;;;;12.20;7.65;;;9.70;99.90;;;;;;5024945;28;20049;-77
2021/12/25 10:18:49;;;;;;;12.68;7.38;;;9.70;99.90;;;;;;5026552;28;20036;-77
2021/12/25 10:21:27;;;;;;;10.48;6.40;;;9.70;99.90;;;;;;5018713;28;20046;-77
2021/12/25 10:24:18;;;;;;;11.15;7.57;;;9.70;99.90;;;;;;5015636;28;20029;-76
2021/12/25 10:26:48;;;;;;;11.38;6.53;;;9.60;99.90;;;;;;5018734;28;20023;-75
2021/12/25 10:29:26;;;;;;;10.82;6.78;;;9.70;99.90;;;;;;5027670;28;20041;-75
2021/12/25 10:32:02;;;;;;;10.88;6.60;;;9.70;99.90;;;;;;5025678;28;20108;-75
2021/12/25 10:34:31;;;;;;;9.60;6.18;;;9.80;99.90;;;;;;5016885;28;20495;-78
2021/12/25 10:37:12;;;;;;;9.95;6.35;;;9.70;99.90;;;;;;5029705;28;20095;-85
2021/12/25 10:39:39;;;;;;;10.93;6.60;;;9.80;99.90;;;;;;5018374;28;20029;-84
2021/12/25 10:42:12;;;;;;;11.98;6.28;;;9.80;99.90;;;;;;5015649;28;20051;-82
2021/12/25 10:44:41;;;;;;;8.85;6.47;;;9.90;99.90;;;;;;5020527;28;20061;-82
2021/12/25 10:47:10;;;;;;;11.63;6.95;;;10.00;99.90;;;;;;5026587;28;20028;-87
2021/12/25 10:49:46;;;;;;;10.88;7.30;;;10.10;99.90;;;;;;5036941;28;20108;-86
2021/12/25 10:52:21;;;;;;;11.15;7.00;;;10.20;99.90;;;;;;5027607;28;20026;-83
2021/12/25 10:54:53;;;;;;;12.93;7.22;;;10.30;99.90;;;;;;5024869;28;20021;-81
2021/12/25 10:57:46;;;;;;;12.77;7.75;;;10.30;99.90;;;;;;5021934;28;20037;-82
2021/12/25 11:00:14;;;;;;;13.80;7.95;;;10.40;99.90;;;;;;5033726;28;20022;-80
2021/12/25 11:02:52;;;;;;;10.85;7.00;;;10.40;99.90;;;;;;5020398;28;20030;-80
2021/12/25 11:05:21;;;;;;;12.05;7.45;;;10.50;99.90;;;;;;5028575;28;20103;-82
2021/12/25 11:08:01;;;;;;;11.85;7.70;;;10.50;99.90;;;;;;5035337;28;20141;-87
2021/12/25 11:10:29;;;;;;;12.40;7.78;;;10.50;99.90;;;;;;5038878;28;20083;-83
2021/12/25 11:12:56;;;;;;;12.35;7.57;;;10.50;99.90;;;;;;5035348;28;20025;-88
2021/12/25 11:15:24;;;;;;;13.30;8.25;;;10.50;99.90;;;;;;5034878;28;20032;-81
2021/12/25 11:17:53;;;;;;;13.18;7.70;;;10.50;99.90;;;;;;5030028;28;20032;-92
2021/12/25 11:20:35;;;;;;;13.48;7.88;;;10.50;99.90;;;;;;5021535;28;20402;-84
2021/12/25 11:23:03;;;;;;;12.88;8.10;;;10.50;99.90;;;;;;5042324;28;20098;-91
2021/12/25 11:25:31;;;;;;;13.40;7.68;;;10.50;99.90;;;;;;5034146;28;20102;-80
2021/12/25 11:27:58;;;;;;;11.80;7.93;;;10.60;99.90;;;;;;5040701;28;20210;-91
2021/12/25 11:30:27;;;;;;;12.95;7.47;;;10.60;99.90;;;;;;5027581;28;20033;-86
2021/12/25 11:32:53;;;;;;;13.60;8.02;;;10.60;99.90;;;;;;5031237;28;20326;-83
2021/12/25 11:35:20;;;;;;;17.08;7.78;;;10.60;99.90;;;;;;5039356;28;20029;-83
2021/12/25 11:37:48;;;;;;;12.82;7.38;;;10.60;99.90;;;;;;5029273;28;20034;-85
2021/12/25 11:40:17;;;;;;;12.38;7.78;;;10.70;99.90;;;;;;5038725;28;20033;-83
2021/12/25 11:42:48;;;;;;;13.73;8.10;;;10.70;99.90;;;;;;5031883;28;20040;-82
2021/12/25 11:45:19;;;;;;;;;;;10.70;99.90;;;;;;5028682;28;20053;-83
2021/12/25 11:47:51;;;;;;;11.68;6.70;;;10.80;99.90;;;;;;5026723;28;19920;-82
2021/12/25 11:50:22;;;;;;;14.13;8.30;;;10.80;99.90;;;;;;5023835;28;20033;-81
2021/12/25 11:53:04;;;;;;;12.73;8.13;;;10.90;99.90;;;;;;5038079;28;20042;-80
2021/12/25 11:58:39;;;;;;;11.90;7.57;;;11.10;99.90;;;;;;5016298;28;20143;-81
2021/12/25 12:01:31;;;;;;;11.18;7.00;;;11.10;99.90;;;;;;5019110;28;20025;-80
2021/12/25 12:03:57;;;;;;;13.70;7.95;;;11.00;99.90;;;;;;5023789;28;20022;-85
2021/12/25 12:06:47;;;;;;;12.70;7.72;;;11.00;99.90;;;;;;5024615;28;20059;-82
2021/12/25 12:09:55;;;;;;;15.00;8.95;;;11.00;99.90;;;;;;5025094;28;20049;-83
2021/12/25 12:12:26;;;;;;;12.95;8.77;;;11.10;99.90;;;;;;5030909;28;20025;-82
2021/12/25 12:15:07;;;;;;;;;;;11.00;99.90;;;;;;5022780;28;20029;-81
2021/12/25 12:17:36;;;;;;;12.60;8.52;;;10.90;99.90;;;;;;5027341;28;19909;-81
2021/12/25 12:20:03;;;;;;;13.70;8.00;;;10.80;99.90;;;;;;5025735;28;20127;-80
2021/12/25 12:25:47;;;;;;;12.90;7.90;;;10.90;99.90;;;;;;5022401;28;20105;-81
2021/12/25 12:28:13;;;;;;;13.05;8.13;;;11.00;99.90;;;;;;5015924;28;20064;-81
2021/12/25 12:30:46;;;;;;;15.43;8.70;;;11.00;99.90;;;;;;5024599;28;20025;-81
2021/12/25 12:33:13;;;;;;;15.70;9.18;;;11.10;99.90;;;;;;5034170;28;20025;-81
2021/12/25 12:35:40;;;;;;;13.07;8.35;;;11.10;99.90;;;;;;5020788;28;20036;-80
2021/12/25 12:38:28;;;;;;;14.43;8.45;;;11.20;99.90;;;;;;5022044;28;20037;-80
2021/12/25 12:41:15;;;;;;;13.90;9.13;;;11.30;99.90;;;;;;5024902;28;20491;-80
2021/12/25 12:44:11;;;;;;;14.38;8.45;;;11.20;99.90;;;;;;5025353;28;20076;-80
2021/12/25 12:47:05;;;;;;;13.05;8.65;;;11.20;99.90;;;;;;5023308;28;20064;-80
2021/12/25 12:49:31;;;;;;;14.88;9.25;;;11.20;99.90;;;;;;4969477;28;20595;-80
2021/12/25 12:52:14;;;;;;;19.77;9.40;;;11.20;99.90;;;;;;4984975;28;20034;-80
2021/12/25 12:54:48;;;;;;;17.70;10.05;;;11.20;99.90;;;;;;4984019;28;20045;-80
2021/12/25 12:57:31;;;;;;;17.08;9.20;;;11.20;99.90;;;;;;4967548;28;20089;-80
2021/12/25 13:00:03;;;;;;;14.13;9.38;;;11.00;99.90;;;;;;4967972;28;20523;-80
2021/12/25 13:02:37;;;;;;;14.38;8.88;;;11.00;99.90;;;;;;4984803;28;20213;-80
2021/12/25 13:05:03;;;;;;;14.88;9.13;;;11.00;99.90;;;;;;4985448;28;20161;-80
2021/12/25 13:07:31;;;;;;;11.45;7.50;;;10.90;99.90;;;;;;4986750;28;20046;-80
2021/12/25 13:10:14;;;;;;;13.85;8.85;;;10.90;99.90;;;;;;4969638;28;20034;-80
2021/12/25 13:12:44;;;;;;;14.35;8.45;;;11.00;99.90;;;;;;4982281;28;20058;-80
2021/12/25 13:15:25;;;;;;;10.98;7.53;;;11.10;99.90;;;;;;4974315;28;20031;-80
2021/12/25 13:17:53;;;;;;;;;;;11.20;99.90;;;;;;4984310;28;20031;-80
2021/12/25 13:20:35;;;;;;;13.05;6.97;;;11.10;99.90;;;;;;4970204;28;19917;-80
2021/12/25 13:23:08;;;;;;;12.95;7.07;;;11.20;99.90;;;;;;4970655;28;20130;-80
2021/12/25 13:25:34;;;;;;;13.57;7.55;;;11.30;99.90;;;;;;4993902;28;20103;-80
2021/12/25 13:28:03;;;;;;;12.32;7.22;;;11.30;99.90;;;;;;5021957;28;20022;-80
2021/12/25 13:30:31;;;;;;;14.52;8.25;;;11.40;99.90;;;;;;5025647;28;20033;-80
2021/12/25 13:33:15;;;;;;;15.50;8.27;;;11.40;99.90;;;;;;5024179;28;20034;-80
2021/12/25 13:35:41;;;;;;;13.38;7.97;;;11.50;99.90;;;;;;5028068;28;20036;-80
2021/12/25 13:38:08;;;;;;;15.43;8.35;;;11.40;99.90;;;;;;5027049;28;20086;-80
2021/12/25 13:40:37;;;;;;;15.35;8.55;;;11.40;99.90;;;;;;5029514;28;20108;-80
2021/12/25 13:43:08;;;;;;;14.77;8.20;;;11.50;99.90;;;;;;5029322;28;20108;-80
2021/12/25 13:45:35;;;;;;;12.85;7.75;;;11.50;99.90;;;;;;5030854;28;20049;-80
2021/12/25 13:48:02;;;;;;;16.27;7.88;;;11.70;99.90;;;;;;5028169;28;20034;-80
2021/12/25 13:50:28;;;;;;;14.52;8.32;;;11.80;99.90;;;;;;5030974;28;20037;-80
2021/12/25 13:52:58;;;;;;;17.20;9.63;;;11.80;99.90;;;;;;5028901;28;20030;-80
2021/12/25 13:55:27;;;;;;;14.07;9.68;;;11.80;99.90;;;;;;5028791;28;20022;-80
2021/12/25 13:57:59;;;;;;;15.88;9.27;;;11.80;99.90;;;;;;5027471;28;20075;-80
2021/12/25 14:00:37;;;;;;;14.45;8.20;;;11.80;99.90;;;;;;5030122;28;20033;-79
2021/12/25 14:03:09;;;;;;;15.15;8.10;;;11.80;99.90;;;;;;5027498;28;20068;-80
2021/12/25 14:05:42;;;;;;;15.07;9.30;;;11.80;99.90;;;;;;5033322;28;20030;-80
2021/12/25 14:08:10;;;;;;;15.55;9.25;;;11.80;99.90;;;;;;5027790;28;21720;-80
2021/12/25 14:10:37;;;;;;;14.73;9.15;;;11.80;99.90;;;;;;5023776;28;20107;-80
2021/12/25 14:13:09;;;;;;;12.30;7.68;;;11.80;99.90;;;;;;5027471;28;20021;-80
2021/12/25 14:15:37;;;;;;;13.02;8.35;;;11.70;99.90;;;;;;5029871;28;20025;-80
2021/12/25 14:18:05;;;;;;;15.35;8.48;;;11.70;99.90;;;;;;5029200;28;20083;-80
2021/12/25 14:20:33;;;;;;;15.80;8.02;;;11.60;99.90;;;;;;5030814;28;20033;-80